Amiret, Minnesota
Current Conditions -  °F | °C
As of 10:12 AM on Thursday 18 Dec 2014 (Local Time) from KTKC Reporting Station
Overcast Overcast  
Wind Chill: 19°   Ceiling: 7000
Heat Index: 19°   Visibility: 10mi
Dew Point: 17°   Wind: 3mph
Humidity: 91%   Direction: 160°SSE
Pressure: 30.25"   Gusts: NA
Location:  44.2253°N, 95.6512°W
Report Text: KTKC 181612Z AUTO 16003KT 10SM OVC070 M07/M08 A3025 RMK AO2 T10721085
Loading
Personal Weather Stations






























Interactive Weather Map New forecast layout! Learn more

10-Day Weather Forecast

Advertisements
Track Severe Weather on mobile